createdAt,value
2023-04-11T00:00:27.729Z,88.87
2023-04-11T00:05:51.934Z,89.40
2023-04-11T00:10:55.375Z,89.85
2023-04-11T00:15:59.369Z,88.93
2023-04-11T00:21:21.067Z,88.83
2023-04-11T00:26:24.624Z,89.03
2023-04-11T00:31:28.165Z,89.01
2023-04-11T00:36:34.084Z,89.73
2023-04-11T00:41:37.810Z,90.06
2023-04-11T00:46:46.577Z,90.29
2023-04-11T00:51:53.385Z,90.25
2023-04-11T00:56:59.316Z,90.12
2023-04-11T01:02:06.277Z,90.72
2023-04-11T01:07:11.991Z,91.30
2023-04-11T01:12:18.579Z,91.39
2023-04-11T01:17:44.354Z,90.65
2023-04-11T01:23:17.096Z,90.48
2023-04-11T01:28:54.727Z,91.33
2023-04-11T01:34:29.527Z,91.47
2023-04-11T01:40:14.320Z,91.58
2023-04-11T01:45:41.484Z,91.62
2023-04-11T01:50:47.764Z,91.71
2023-04-11T01:55:51.327Z,93.30
2023-04-11T02:00:54.727Z,92.15
2023-04-11T02:05:58.039Z,91.93
2023-04-11T02:11:01.657Z,92.70
2023-04-11T02:16:15.439Z,93.00
2023-04-11T02:21:19.273Z,92.74
2023-04-11T02:26:22.969Z,92.17
2023-04-11T02:31:26.351Z,92.10
2023-04-11T02:36:32.893Z,92.42
2023-04-11T02:41:42.140Z,94.19
2023-04-11T02:46:45.674Z,94.23
2023-04-11T02:51:49.432Z,94.99
2023-04-11T02:56:53.014Z,95.71
2023-04-11T03:02:00.773Z,96.22
2023-04-11T03:07:08.166Z,96.42
2023-04-11T03:12:11.614Z,97.51
2023-04-11T03:17:26.199Z,98.25
2023-04-11T03:22:38.477Z,98.51
2023-04-11T03:27:42.238Z,97.54
2023-04-11T03:32:47.295Z,95.44
2023-04-11T03:38:21.420Z,94.98
2023-04-11T03:43:25.450Z,94.28
2023-04-11T03:48:30.773Z,95.53
2023-04-11T03:53:37.008Z,96.04
2023-04-11T03:58:50.501Z,95.91
2023-04-11T04:03:56.369Z,96.41
2023-04-11T04:09:00.120Z,97.03
2023-04-11T04:14:29.125Z,97.17
2023-04-11T04:19:44.345Z,97.47
2023-04-11T04:24:52.073Z,97.09
2023-04-11T04:30:04.546Z,97.82
2023-04-11T04:35:29.970Z,97.87
2023-04-11T04:40:48.421Z,99.30
2023-04-11T04:46:02.733Z,98.48
2023-04-11T04:51:14.550Z,99.70
2023-04-11T04:56:38.626Z,99.68
2023-04-11T05:01:45.275Z,99.67
2023-04-11T05:06:52.069Z,98.18
2023-04-11T05:11:58.243Z,95.86
2023-04-11T05:17:01.840Z,94.14
2023-04-11T05:22:08.819Z,92.38
2023-04-11T05:27:14.346Z,91.19
2023-04-11T05:32:20.817Z,90.38
2023-04-11T05:37:48.122Z,88.33
2023-04-11T05:42:51.813Z,85.18
2023-04-11T05:47:57.752Z,81.80
2023-04-11T05:53:04.924Z,80.00
2023-04-11T05:58:09.791Z,76.98
2023-04-11T06:03:13.489Z,74.52
2023-04-11T06:08:17.942Z,72.13
2023-04-11T06:13:21.305Z,70.71
2023-04-11T06:18:24.452Z,68.94
2023-04-11T06:23:31.339Z,66.91
2023-04-11T06:28:34.469Z,65.88
2023-04-11T06:33:38.728Z,64.96
2023-04-11T06:38:42.536Z,64.99
2023-04-11T06:43:45.829Z,63.73
2023-04-11T06:48:48.998Z,62.92
2023-04-11T06:53:53.384Z,62.72
2023-04-11T06:58:56.621Z,61.55
2023-04-11T07:04:00.087Z,61.41
2023-04-11T07:09:05.019Z,61.57
2023-04-11T07:14:08.294Z,63.05
2023-04-11T07:19:11.704Z,62.80
2023-04-11T07:24:14.861Z,62.61
2023-04-11T07:29:18.277Z,63.27
2023-04-11T07:34:22.036Z,64.01
2023-04-11T07:39:28.017Z,64.78
2023-04-11T07:44:31.153Z,66.04
2023-04-11T07:49:34.325Z,66.26
2023-04-11T07:54:37.552Z,65.99
2023-04-11T07:59:40.815Z,65.84
2023-04-11T08:04:44.365Z,65.42
2023-04-11T08:09:47.818Z,65.28
2023-04-11T08:14:51.060Z,65.14
2023-04-11T08:19:54.811Z,64.23
2023-04-11T08:24:58.080Z,63.96
2023-04-11T08:30:02.029Z,64.77
2023-04-11T08:35:05.812Z,65.31
2023-04-11T08:40:09.636Z,66.02
2023-04-11T08:45:13.171Z,66.18
2023-04-11T08:50:16.407Z,65.30
2023-04-11T08:55:22.224Z,64.42
2023-04-11T09:00:27.439Z,62.48
2023-04-11T09:05:39.318Z,60.55
2023-04-11T09:10:46.197Z,60.82
2023-04-11T09:16:19.117Z,60.71
2023-04-11T09:21:22.496Z,59.74
2023-04-11T09:26:30.121Z,59.67
2023-04-11T09:31:53.768Z,58.34
2023-04-11T09:36:57.140Z,58.57
2023-04-11T09:42:01.081Z,58.35
2023-04-11T09:47:05.020Z,56.88
2023-04-11T09:52:08.838Z,57.74
2023-04-11T09:57:14.154Z,57.82
2023-04-11T10:02:17.867Z,57.82
2023-04-11T10:07:21.733Z,58.57
2023-04-11T10:12:32.308Z,56.98
2023-04-11T10:17:36.839Z,57.08
2023-04-11T10:22:43.794Z,57.37
2023-04-11T10:27:49.857Z,56.05
2023-04-11T10:33:12.841Z,55.33
2023-04-11T10:38:43.865Z,55.42
2023-04-11T10:43:47.802Z,54.08
2023-04-11T10:49:01.668Z,52.19
2023-04-11T10:54:05.228Z,51.26
2023-04-11T10:59:31.412Z,50.78
2023-04-11T11:04:37.057Z,50.15
2023-04-11T11:09:40.551Z,50.83
2023-04-11T11:14:46.254Z,50.89
2023-04-11T11:19:49.654Z,48.80
2023-04-11T11:24:53.639Z,49.39
2023-04-11T11:29:56.844Z,49.13
2023-04-11T11:35:00.411Z,49.40
2023-04-11T11:40:09.632Z,49.12
2023-04-11T11:45:16.607Z,47.47
2023-04-11T11:50:33.256Z,48.32
2023-04-11T11:55:36.549Z,47.71
2023-04-11T12:00:41.558Z,47.36
2023-04-11T12:05:44.816Z,48.03
2023-04-11T12:10:49.774Z,47.81
2023-04-11T12:15:55.915Z,48.07
2023-04-11T12:20:59.697Z,48.15
2023-04-11T12:26:03.429Z,47.25
2023-04-11T12:31:07.027Z,46.87
2023-04-11T12:36:11.101Z,47.57
2023-04-11T12:41:31.746Z,46.64
2023-04-11T12:46:36.393Z,47.70
2023-04-11T12:51:39.601Z,46.68
2023-04-11T12:56:42.926Z,46.76
2023-04-11T13:01:47.048Z,46.45
2023-04-11T13:06:52.429Z,47.54
2023-04-11T13:11:57.030Z,49.11
2023-04-11T13:17:00.326Z,50.08
2023-04-11T13:22:04.038Z,50.72
2023-04-11T13:27:07.292Z,51.00
2023-04-11T13:32:10.662Z,51.33
2023-04-11T13:37:16.730Z,52.23
2023-04-11T13:42:21.903Z,52.44
2023-04-11T13:47:25.366Z,52.19
2023-04-11T13:52:28.762Z,52.24
2023-04-11T13:57:31.926Z,52.53
2023-04-11T14:02:35.347Z,52.18
2023-04-11T14:07:38.931Z,51.88
2023-04-11T14:12:42.513Z,52.17
2023-04-11T14:17:47.942Z,52.39
2023-04-11T14:22:51.631Z,52.13
2023-04-11T14:27:55.119Z,51.82
2023-04-11T14:32:58.290Z,51.90
2023-04-11T14:38:02.264Z,52.53
2023-04-11T14:43:06.468Z,51.87
2023-04-11T14:48:10.208Z,51.67
2023-04-11T14:53:13.543Z,51.78
2023-04-11T14:58:17.204Z,51.47
2023-04-11T15:03:20.816Z,51.90
2023-04-11T15:08:24.200Z,51.30
2023-04-11T15:13:27.361Z,50.86
2023-04-11T15:18:32.941Z,51.35
2023-04-11T15:23:36.722Z,51.11
2023-04-11T15:28:40.181Z,50.93
2023-04-11T15:33:43.497Z,50.56
2023-04-11T15:38:46.812Z,50.83
2023-04-11T15:43:50.181Z,48.55
2023-04-11T15:48:53.636Z,48.15
2023-04-11T15:53:56.937Z,48.33
2023-04-11T15:59:00.414Z,48.45
2023-04-11T16:04:04.269Z,49.07
2023-04-11T16:09:09.108Z,49.36
2023-04-11T16:14:12.507Z,50.03
2023-04-11T16:19:15.825Z,50.35
2023-04-11T16:24:19.283Z,51.36
2023-04-11T16:29:23.531Z,52.26
2023-04-11T16:34:27.392Z,53.19
2023-04-11T16:39:31.094Z,53.70
2023-04-11T16:44:34.369Z,54.09
2023-04-11T16:49:37.905Z,54.48
2023-04-11T16:54:41.123Z,55.02
2023-04-11T16:59:44.794Z,55.41
2023-04-11T17:05:08.946Z,55.84
2023-04-11T17:10:12.670Z,56.22
2023-04-11T17:15:19.242Z,56.72
2023-04-11T17:20:23.587Z,56.90
2023-04-11T17:25:30.240Z,57.43
2023-04-11T17:30:33.689Z,57.88
2023-04-11T17:35:37.013Z,58.34
2023-04-11T17:40:45.516Z,58.66
2023-04-11T17:45:50.119Z,59.13
2023-04-11T17:50:55.422Z,59.42
2023-04-11T17:56:04.668Z,60.01
2023-04-11T18:01:30.167Z,60.46
2023-04-11T18:06:34.403Z,60.70
2023-04-11T18:11:42.003Z,60.88
2023-04-11T18:16:51.173Z,61.08
2023-04-11T18:21:55.185Z,61.51
2023-04-11T18:26:58.628Z,61.83
2023-04-11T18:32:03.086Z,62.02
2023-04-11T18:37:10.314Z,62.47
2023-04-11T18:42:24.132Z,62.65
2023-04-11T18:47:27.683Z,63.04
2023-04-11T18:52:32.369Z,63.60
2023-04-11T18:57:39.279Z,64.08
2023-04-11T19:02:47.130Z,64.40
2023-04-11T19:07:53.502Z,64.80
2023-04-11T19:12:57.172Z,65.24
2023-04-11T19:18:06.669Z,65.54
2023-04-11T19:23:13.610Z,66.06
2023-04-11T19:28:22.956Z,66.38
2023-04-11T19:33:39.108Z,66.96
2023-04-11T19:38:42.912Z,67.44
2023-04-11T19:43:57.199Z,67.74
2023-04-11T19:49:01.688Z,67.73
2023-04-11T19:54:05.199Z,67.99
2023-04-11T19:59:08.625Z,68.82
2023-04-11T20:04:13.139Z,69.33
2023-04-11T20:09:17.014Z,70.50
2023-04-11T20:14:20.784Z,71.38
2023-04-11T20:19:28.546Z,72.36
2023-04-11T20:24:46.785Z,72.66
2023-04-11T20:29:50.345Z,73.03
2023-04-11T20:34:56.485Z,73.68
2023-04-11T20:40:10.936Z,73.70
2023-04-11T20:45:22.048Z,73.79
2023-04-11T20:50:25.924Z,74.22
2023-04-11T20:55:44.460Z,74.53
2023-04-11T21:01:08.180Z,74.72
2023-04-11T21:06:11.852Z,75.47
2023-04-11T21:11:18.204Z,75.74
2023-04-11T21:16:22.016Z,75.70
2023-04-11T21:21:25.842Z,75.24
2023-04-11T21:26:29.451Z,75.34
2023-04-11T21:31:33.273Z,76.10
2023-04-11T21:36:51.131Z,76.58
2023-04-11T21:42:00.289Z,77.31
2023-04-11T21:47:06.762Z,78.06
2023-04-11T21:52:15.813Z,78.53
2023-04-11T21:57:19.210Z,77.74
2023-04-11T22:02:22.923Z,78.81
2023-04-11T22:08:20.579Z,79.80
2023-04-11T22:13:46.886Z,79.83
2023-04-11T22:18:54.606Z,80.59
2023-04-11T22:23:58.296Z,80.81
2023-04-11T22:29:06.045Z,81.03
2023-04-11T22:34:09.883Z,82.44
2023-04-11T22:39:13.420Z,83.10
2023-04-11T22:44:19.712Z,83.59
2023-04-11T22:49:27.085Z,84.84
2023-04-11T22:54:30.522Z,85.92
2023-04-11T22:59:34.048Z,86.53
2023-04-11T23:04:40.017Z,86.97
2023-04-11T23:09:44.965Z,87.87
2023-04-11T23:14:53.336Z,88.37
2023-04-11T23:19:59.669Z,89.36
2023-04-11T23:25:12.835Z,89.89
2023-04-11T23:30:28.667Z,90.39
2023-04-11T23:35:34.292Z,90.40
2023-04-11T23:40:43.369Z,90.54
2023-04-11T23:45:49.924Z,90.34
2023-04-11T23:50:53.340Z,90.39
2023-04-11T23:55:56.667Z,90.55
